sensor_id;sensor_type;location;lat;lon;timestamp;P1;durP1;ratioP1;P2;durP2;ratioP2
23258;SDS011;11798;51.528;7.240;2022-12-10T00:00:34;85.27;;;41.37;;
23258;SDS011;11798;51.528;7.240;2022-12-10T00:03:00;84.87;;;44.33;;
23258;SDS011;11798;51.528;7.240;2022-12-10T00:05:26;80.13;;;42.33;;
23258;SDS011;11798;51.528;7.240;2022-12-10T00:07:52;78.97;;;41.67;;
23258;SDS011;11798;51.528;7.240;2022-12-10T00:10:17;78.27;;;40.47;;
23258;SDS011;11798;51.528;7.240;2022-12-10T00:12:43;84.13;;;41.40;;
23258;SDS011;11798;51.528;7.240;2022-12-10T00:15:09;83.50;;;40.60;;
23258;SDS011;11798;51.528;7.240;2022-12-10T00:17:35;84.97;;;41.13;;
23258;SDS011;11798;51.528;7.240;2022-12-10T00:20:01;75.33;;;38.07;;
23258;SDS011;11798;51.528;7.240;2022-12-10T00:22:27;80.77;;;41.43;;
23258;SDS011;11798;51.528;7.240;2022-12-10T00:24:53;78.87;;;39.07;;
23258;SDS011;11798;51.528;7.240;2022-12-10T00:27:18;79.83;;;39.70;;
23258;SDS011;11798;51.528;7.240;2022-12-10T00:29:44;78.27;;;39.43;;
23258;SDS011;11798;51.528;7.240;2022-12-10T00:32:09;83.67;;;40.30;;
23258;SDS011;11798;51.528;7.240;2022-12-10T00:34:35;79.83;;;39.10;;
23258;SDS011;11798;51.528;7.240;2022-12-10T00:37:01;78.10;;;40.13;;
23258;SDS011;11798;51.528;7.240;2022-12-10T00:39:27;84.47;;;41.63;;
23258;SDS011;11798;51.528;7.240;2022-12-10T00:41:52;81.67;;;40.17;;
23258;SDS011;11798;51.528;7.240;2022-12-10T00:44:19;79.03;;;40.07;;
23258;SDS011;11798;51.528;7.240;2022-12-10T00:46:44;80.70;;;38.20;;
23258;SDS011;11798;51.528;7.240;2022-12-10T00:49:10;73.03;;;36.70;;
23258;SDS011;11798;51.528;7.240;2022-12-10T00:51:36;77.63;;;39.80;;
23258;SDS011;11798;51.528;7.240;2022-12-10T00:54:02;82.30;;;39.27;;
23258;SDS011;11798;51.528;7.240;2022-12-10T00:56:29;82.33;;;38.27;;
23258;SDS011;11798;51.528;7.240;2022-12-10T00:58:57;77.10;;;38.50;;
23258;SDS011;11798;51.528;7.240;2022-12-10T01:03:59;88.63;;;40.50;;
23258;SDS011;11798;51.528;7.240;2022-12-10T01:06:32;84.20;;;41.13;;
23258;SDS011;11798;51.528;7.240;2022-12-10T01:09:01;81.00;;;41.00;;
23258;SDS011;11798;51.528;7.240;2022-12-10T01:11:32;83.97;;;41.07;;
23258;SDS011;11798;51.528;7.240;2022-12-10T01:13:59;87.43;;;42.87;;
23258;SDS011;11798;51.528;7.240;2022-12-10T01:16:26;90.00;;;41.77;;
23258;SDS011;11798;51.528;7.240;2022-12-10T01:18:52;85.60;;;43.70;;
23258;SDS011;11798;51.528;7.240;2022-12-10T01:21:19;86.50;;;43.90;;
23258;SDS011;11798;51.528;7.240;2022-12-10T01:23:46;84.00;;;43.00;;
23258;SDS011;11798;51.528;7.240;2022-12-10T01:26:15;86.07;;;44.60;;
23258;SDS011;11798;51.528;7.240;2022-12-10T01:28:42;81.63;;;40.47;;
23258;SDS011;11798;51.528;7.240;2022-12-10T01:31:09;84.23;;;42.60;;
23258;SDS011;11798;51.528;7.240;2022-12-10T01:33:37;82.03;;;42.23;;
23258;SDS011;11798;51.528;7.240;2022-12-10T01:36:04;80.07;;;41.07;;
23258;SDS011;11798;51.528;7.240;2022-12-10T01:38:40;81.57;;;40.63;;
23258;SDS011;11798;51.528;7.240;2022-12-10T01:41:07;77.17;;;38.23;;
23258;SDS011;11798;51.528;7.240;2022-12-10T01:43:57;79.60;;;40.07;;
23258;SDS011;11798;51.528;7.240;2022-12-10T01:46:25;80.93;;;40.53;;
23258;SDS011;11798;51.528;7.240;2022-12-10T01:48:52;79.33;;;38.67;;
23258;SDS011;11798;51.528;7.240;2022-12-10T01:51:19;81.43;;;39.27;;
23258;SDS011;11798;51.528;7.240;2022-12-10T01:53:46;77.93;;;38.67;;
23258;SDS011;11798;51.528;7.240;2022-12-10T01:56:12;78.90;;;38.50;;
23258;SDS011;11798;51.528;7.240;2022-12-10T01:58:40;80.57;;;39.50;;
23258;SDS011;11798;51.528;7.240;2022-12-10T02:01:20;77.93;;;39.83;;
23258;SDS011;11798;51.528;7.240;2022-12-10T02:06:22;78.77;;;39.77;;
23258;SDS011;11798;51.528;7.240;2022-12-10T02:09:11;72.53;;;36.20;;
23258;SDS011;11798;51.528;7.240;2022-12-10T02:15:02;68.57;;;36.60;;
23258;SDS011;11798;51.528;7.240;2022-12-10T02:17:57;75.57;;;37.97;;
23258;SDS011;11798;51.528;7.240;2022-12-10T02:23:25;77.40;;;39.03;;
23258;SDS011;11798;51.528;7.240;2022-12-10T02:25:59;76.33;;;38.73;;
23258;SDS011;11798;51.528;7.240;2022-12-10T02:31:11;75.03;;;40.40;;
23258;SDS011;11798;51.528;7.240;2022-12-10T02:33:43;80.50;;;39.63;;
23258;SDS011;11798;51.528;7.240;2022-12-10T02:36:15;71.27;;;37.07;;
23258;SDS011;11798;51.528;7.240;2022-12-10T02:38:41;69.47;;;36.67;;
23258;SDS011;11798;51.528;7.240;2022-12-10T02:41:11;75.00;;;36.80;;
23258;SDS011;11798;51.528;7.240;2022-12-10T02:43:41;71.47;;;36.63;;
23258;SDS011;11798;51.528;7.240;2022-12-10T02:46:09;74.87;;;37.30;;
23258;SDS011;11798;51.528;7.240;2022-12-10T02:48:35;75.87;;;38.33;;
23258;SDS011;11798;51.528;7.240;2022-12-10T02:51:02;78.40;;;38.50;;
23258;SDS011;11798;51.528;7.240;2022-12-10T02:53:27;72.00;;;38.13;;
23258;SDS011;11798;51.528;7.240;2022-12-10T02:58:49;73.17;;;37.30;;
23258;SDS011;11798;51.528;7.240;2022-12-10T03:04:26;71.63;;;36.93;;
23258;SDS011;11798;51.528;7.240;2022-12-10T03:07:00;69.47;;;37.37;;
23258;SDS011;11798;51.528;7.240;2022-12-10T03:09:34;62.93;;;34.63;;
23258;SDS011;11798;51.528;7.240;2022-12-10T03:12:28;68.13;;;35.70;;
23258;SDS011;11798;51.528;7.240;2022-12-10T03:14:57;72.73;;;38.33;;
23258;SDS011;11798;51.528;7.240;2022-12-10T03:17:25;62.90;;;32.93;;
23258;SDS011;11798;51.528;7.240;2022-12-10T03:19:53;65.37;;;34.27;;
23258;SDS011;11798;51.528;7.240;2022-12-10T03:22:22;62.83;;;34.70;;
23258;SDS011;11798;51.528;7.240;2022-12-10T03:24:48;67.37;;;33.60;;
23258;SDS011;11798;51.528;7.240;2022-12-10T03:27:14;65.87;;;35.07;;
23258;SDS011;11798;51.528;7.240;2022-12-10T03:32:10;57.50;;;30.60;;
23258;SDS011;11798;51.528;7.240;2022-12-10T03:34:36;56.27;;;30.87;;
23258;SDS011;11798;51.528;7.240;2022-12-10T03:37:03;58.07;;;30.10;;
23258;SDS011;11798;51.528;7.240;2022-12-10T03:39:29;58.03;;;30.10;;
23258;SDS011;11798;51.528;7.240;2022-12-10T03:41:55;61.00;;;32.93;;
23258;SDS011;11798;51.528;7.240;2022-12-10T03:44:32;57.13;;;30.73;;
23258;SDS011;11798;51.528;7.240;2022-12-10T03:47:00;53.93;;;29.47;;
23258;SDS011;11798;51.528;7.240;2022-12-10T03:49:27;57.97;;;31.63;;
23258;SDS011;11798;51.528;7.240;2022-12-10T03:51:52;64.77;;;34.20;;
23258;SDS011;11798;51.528;7.240;2022-12-10T03:54:18;60.33;;;32.13;;
23258;SDS011;11798;51.528;7.240;2022-12-10T03:56:44;66.57;;;34.37;;
23258;SDS011;11798;51.528;7.240;2022-12-10T03:59:10;60.43;;;32.83;;
23258;SDS011;11798;51.528;7.240;2022-12-10T04:01:36;61.30;;;32.67;;
23258;SDS011;11798;51.528;7.240;2022-12-10T04:04:02;63.73;;;33.07;;
23258;SDS011;11798;51.528;7.240;2022-12-10T04:06:29;60.20;;;32.10;;
23258;SDS011;11798;51.528;7.240;2022-12-10T04:08:55;56.73;;;31.30;;
23258;SDS011;11798;51.528;7.240;2022-12-10T04:11:20;55.40;;;30.37;;
23258;SDS011;11798;51.528;7.240;2022-12-10T04:13:46;57.17;;;31.70;;
23258;SDS011;11798;51.528;7.240;2022-12-10T04:16:31;55.00;;;31.43;;
23258;SDS011;11798;51.528;7.240;2022-12-10T04:18:59;59.07;;;31.10;;
23258;SDS011;11798;51.528;7.240;2022-12-10T04:21:28;58.17;;;31.83;;
23258;SDS011;11798;51.528;7.240;2022-12-10T04:24:14;61.93;;;33.90;;
23258;SDS011;11798;51.528;7.240;2022-12-10T04:27:01;60.77;;;31.27;;
23258;SDS011;11798;51.528;7.240;2022-12-10T04:29:29;58.23;;;31.40;;
23258;SDS011;11798;51.528;7.240;2022-12-10T04:31:55;61.67;;;31.87;;
23258;SDS011;11798;51.528;7.240;2022-12-10T04:34:22;56.47;;;31.63;;
23258;SDS011;11798;51.528;7.240;2022-12-10T04:36:49;57.90;;;30.67;;
23258;SDS011;11798;51.528;7.240;2022-12-10T04:39:16;56.20;;;32.57;;
23258;SDS011;11798;51.528;7.240;2022-12-10T04:41:43;55.90;;;30.97;;
23258;SDS011;11798;51.528;7.240;2022-12-10T04:44:10;54.53;;;29.93;;
23258;SDS011;11798;51.528;7.240;2022-12-10T04:46:36;53.83;;;30.03;;
23258;SDS011;11798;51.528;7.240;2022-12-10T04:49:03;52.80;;;30.13;;
23258;SDS011;11798;51.528;7.240;2022-12-10T04:51:29;49.30;;;28.50;;
23258;SDS011;11798;51.528;7.240;2022-12-10T04:53:55;52.27;;;30.30;;
23258;SDS011;11798;51.528;7.240;2022-12-10T04:56:21;53.00;;;29.80;;
23258;SDS011;11798;51.528;7.240;2022-12-10T04:58:47;46.27;;;27.07;;
23258;SDS011;11798;51.528;7.240;2022-12-10T05:01:13;45.80;;;25.93;;
23258;SDS011;11798;51.528;7.240;2022-12-10T05:03:39;44.70;;;25.83;;
23258;SDS011;11798;51.528;7.240;2022-12-10T05:06:06;47.07;;;27.27;;
23258;SDS011;11798;51.528;7.240;2022-12-10T05:08:34;44.07;;;26.13;;
23258;SDS011;11798;51.528;7.240;2022-12-10T05:11:01;42.20;;;25.07;;
23258;SDS011;11798;51.528;7.240;2022-12-10T05:13:27;47.80;;;25.13;;
23258;SDS011;11798;51.528;7.240;2022-12-10T05:15:53;44.40;;;26.23;;
23258;SDS011;11798;51.528;7.240;2022-12-10T05:18:19;47.70;;;27.93;;
23258;SDS011;11798;51.528;7.240;2022-12-10T05:20:44;43.70;;;25.30;;
23258;SDS011;11798;51.528;7.240;2022-12-10T05:23:10;41.83;;;23.77;;
23258;SDS011;11798;51.528;7.240;2022-12-10T05:26:04;45.43;;;25.43;;
23258;SDS011;11798;51.528;7.240;2022-12-10T05:28:31;42.40;;;25.13;;
23258;SDS011;11798;51.528;7.240;2022-12-10T05:30:59;40.80;;;24.83;;
23258;SDS011;11798;51.528;7.240;2022-12-10T05:33:25;40.97;;;24.00;;
23258;SDS011;11798;51.528;7.240;2022-12-10T05:35:58;42.33;;;23.97;;
23258;SDS011;11798;51.528;7.240;2022-12-10T05:38:26;41.27;;;23.70;;
23258;SDS011;11798;51.528;7.240;2022-12-10T05:40:53;42.03;;;23.50;;
23258;SDS011;11798;51.528;7.240;2022-12-10T05:43:19;45.60;;;25.23;;
23258;SDS011;11798;51.528;7.240;2022-12-10T05:45:45;41.73;;;23.20;;
23258;SDS011;11798;51.528;7.240;2022-12-10T05:48:11;43.33;;;23.53;;
23258;SDS011;11798;51.528;7.240;2022-12-10T05:50:38;41.73;;;23.30;;
23258;SDS011;11798;51.528;7.240;2022-12-10T05:53:05;38.97;;;21.93;;
23258;SDS011;11798;51.528;7.240;2022-12-10T05:57:59;38.17;;;21.40;;
23258;SDS011;11798;51.528;7.240;2022-12-10T06:00:26;41.40;;;22.03;;
23258;SDS011;11798;51.528;7.240;2022-12-10T06:02:52;43.57;;;24.37;;
23258;SDS011;11798;51.528;7.240;2022-12-10T06:05:18;34.03;;;20.80;;
23258;SDS011;11798;51.528;7.240;2022-12-10T06:07:43;39.23;;;22.17;;
23258;SDS011;11798;51.528;7.240;2022-12-10T06:10:09;41.63;;;22.90;;
23258;SDS011;11798;51.528;7.240;2022-12-10T06:12:35;41.27;;;22.73;;
23258;SDS011;11798;51.528;7.240;2022-12-10T06:15:02;39.33;;;22.20;;
23258;SDS011;11798;51.528;7.240;2022-12-10T06:17:28;38.63;;;21.67;;
23258;SDS011;11798;51.528;7.240;2022-12-10T06:19:53;38.03;;;22.37;;
23258;SDS011;11798;51.528;7.240;2022-12-10T06:22:19;43.37;;;23.50;;
23258;SDS011;11798;51.528;7.240;2022-12-10T06:24:44;42.67;;;24.17;;
23258;SDS011;11798;51.528;7.240;2022-12-10T06:27:10;44.20;;;23.90;;
23258;SDS011;11798;51.528;7.240;2022-12-10T06:29:35;42.57;;;23.60;;
23258;SDS011;11798;51.528;7.240;2022-12-10T06:32:01;45.63;;;24.97;;
23258;SDS011;11798;51.528;7.240;2022-12-10T06:34:27;45.87;;;25.53;;
23258;SDS011;11798;51.528;7.240;2022-12-10T06:36:52;43.77;;;24.23;;
23258;SDS011;11798;51.528;7.240;2022-12-10T06:39:18;41.70;;;23.07;;
23258;SDS011;11798;51.528;7.240;2022-12-10T06:41:43;47.10;;;24.10;;
23258;SDS011;11798;51.528;7.240;2022-12-10T06:44:10;40.43;;;23.87;;
23258;SDS011;11798;51.528;7.240;2022-12-10T06:46:37;46.13;;;25.47;;
23258;SDS011;11798;51.528;7.240;2022-12-10T06:49:03;46.47;;;25.07;;
23258;SDS011;11798;51.528;7.240;2022-12-10T06:51:30;44.73;;;24.07;;
23258;SDS011;11798;51.528;7.240;2022-12-10T06:53:56;47.20;;;24.83;;
23258;SDS011;11798;51.528;7.240;2022-12-10T06:56:21;48.30;;;25.10;;
23258;SDS011;11798;51.528;7.240;2022-12-10T06:58:47;45.17;;;24.70;;
23258;SDS011;11798;51.528;7.240;2022-12-10T07:01:20;45.60;;;24.63;;
23258;SDS011;11798;51.528;7.240;2022-12-10T07:03:48;42.47;;;24.20;;
23258;SDS011;11798;51.528;7.240;2022-12-10T07:06:14;45.80;;;25.03;;
23258;SDS011;11798;51.528;7.240;2022-12-10T07:08:40;46.73;;;24.80;;
23258;SDS011;11798;51.528;7.240;2022-12-10T07:11:06;46.57;;;24.83;;
23258;SDS011;11798;51.528;7.240;2022-12-10T07:13:33;50.40;;;27.37;;
23258;SDS011;11798;51.528;7.240;2022-12-10T07:16:00;48.13;;;25.67;;
23258;SDS011;11798;51.528;7.240;2022-12-10T07:18:25;47.47;;;26.13;;
23258;SDS011;11798;51.528;7.240;2022-12-10T07:20:52;50.90;;;27.57;;
23258;SDS011;11798;51.528;7.240;2022-12-10T07:23:18;47.73;;;25.63;;
23258;SDS011;11798;51.528;7.240;2022-12-10T07:25:44;49.40;;;26.20;;
23258;SDS011;11798;51.528;7.240;2022-12-10T07:28:09;50.33;;;26.23;;
23258;SDS011;11798;51.528;7.240;2022-12-10T07:30:35;56.63;;;27.80;;
23258;SDS011;11798;51.528;7.240;2022-12-10T07:33:00;44.73;;;24.73;;
23258;SDS011;11798;51.528;7.240;2022-12-10T07:35:26;49.30;;;26.60;;
23258;SDS011;11798;51.528;7.240;2022-12-10T07:37:51;45.37;;;25.17;;
23258;SDS011;11798;51.528;7.240;2022-12-10T07:40:17;49.67;;;25.57;;
23258;SDS011;11798;51.528;7.240;2022-12-10T07:42:43;51.80;;;27.17;;
23258;SDS011;11798;51.528;7.240;2022-12-10T07:45:08;54.43;;;29.07;;
23258;SDS011;11798;51.528;7.240;2022-12-10T07:47:35;54.00;;;27.93;;
23258;SDS011;11798;51.528;7.240;2022-12-10T07:50:02;56.63;;;29.30;;
23258;SDS011;11798;51.528;7.240;2022-12-10T07:52:28;54.33;;;29.20;;
23258;SDS011;11798;51.528;7.240;2022-12-10T07:54:53;54.70;;;27.83;;
23258;SDS011;11798;51.528;7.240;2022-12-10T07:57:19;59.50;;;29.47;;
23258;SDS011;11798;51.528;7.240;2022-12-10T07:59:44;52.93;;;28.77;;
23258;SDS011;11798;51.528;7.240;2022-12-10T08:02:10;54.70;;;28.17;;
23258;SDS011;11798;51.528;7.240;2022-12-10T08:04:36;56.53;;;29.47;;
23258;SDS011;11798;51.528;7.240;2022-12-10T08:07:02;55.83;;;30.23;;
23258;SDS011;11798;51.528;7.240;2022-12-10T08:09:28;53.30;;;27.83;;
23258;SDS011;11798;51.528;7.240;2022-12-10T08:11:54;59.07;;;31.97;;
23258;SDS011;11798;51.528;7.240;2022-12-10T08:14:19;61.87;;;31.37;;
23258;SDS011;11798;51.528;7.240;2022-12-10T08:16:45;59.50;;;32.37;;
23258;SDS011;11798;51.528;7.240;2022-12-10T08:19:10;65.90;;;32.47;;
23258;SDS011;11798;51.528;7.240;2022-12-10T08:21:36;74.40;;;35.63;;
23258;SDS011;11798;51.528;7.240;2022-12-10T08:24:02;89.13;;;39.70;;
23258;SDS011;11798;51.528;7.240;2022-12-10T08:26:29;85.97;;;39.17;;
23258;SDS011;11798;51.528;7.240;2022-12-10T08:28:57;101.40;;;43.23;;
23258;SDS011;11798;51.528;7.240;2022-12-10T08:31:24;93.73;;;41.53;;
23258;SDS011;11798;51.528;7.240;2022-12-10T08:33:51;106.07;;;44.97;;
23258;SDS011;11798;51.528;7.240;2022-12-10T08:36:17;104.90;;;42.23;;
23258;SDS011;11798;51.528;7.240;2022-12-10T08:38:44;98.23;;;43.57;;
23258;SDS011;11798;51.528;7.240;2022-12-10T08:41:11;104.23;;;42.43;;
23258;SDS011;11798;51.528;7.240;2022-12-10T08:43:39;97.17;;;41.43;;
23258;SDS011;11798;51.528;7.240;2022-12-10T08:46:05;103.53;;;41.20;;
23258;SDS011;11798;51.528;7.240;2022-12-10T08:48:32;97.93;;;42.63;;
23258;SDS011;11798;51.528;7.240;2022-12-10T08:50:58;94.23;;;41.63;;
23258;SDS011;11798;51.528;7.240;2022-12-10T08:53:23;98.83;;;42.80;;
23258;SDS011;11798;51.528;7.240;2022-12-10T08:55:52;108.00;;;43.97;;
23258;SDS011;11798;51.528;7.240;2022-12-10T08:58:19;104.60;;;42.57;;
23258;SDS011;11798;51.528;7.240;2022-12-10T09:00:45;101.07;;;43.07;;
23258;SDS011;11798;51.528;7.240;2022-12-10T09:03:11;105.57;;;42.63;;
23258;SDS011;11798;51.528;7.240;2022-12-10T09:05:37;105.73;;;42.60;;
23258;SDS011;11798;51.528;7.240;2022-12-10T09:08:03;103.40;;;42.57;;
23258;SDS011;11798;51.528;7.240;2022-12-10T09:10:29;99.93;;;41.87;;
23258;SDS011;11798;51.528;7.240;2022-12-10T09:12:55;94.10;;;41.60;;
23258;SDS011;11798;51.528;7.240;2022-12-10T09:15:20;97.90;;;41.97;;
23258;SDS011;11798;51.528;7.240;2022-12-10T09:17:46;89.33;;;39.17;;
23258;SDS011;11798;51.528;7.240;2022-12-10T09:20:11;95.10;;;42.30;;
23258;SDS011;11798;51.528;7.240;2022-12-10T09:22:37;92.83;;;40.80;;
23258;SDS011;11798;51.528;7.240;2022-12-10T09:25:04;85.67;;;37.50;;
23258;SDS011;11798;51.528;7.240;2022-12-10T09:27:31;91.53;;;40.43;;
23258;SDS011;11798;51.528;7.240;2022-12-10T09:29:57;88.57;;;38.27;;
23258;SDS011;11798;51.528;7.240;2022-12-10T09:32:22;82.90;;;38.03;;
23258;SDS011;11798;51.528;7.240;2022-12-10T09:34:51;84.03;;;37.53;;
23258;SDS011;11798;51.528;7.240;2022-12-10T09:37:17;87.10;;;39.00;;
23258;SDS011;11798;51.528;7.240;2022-12-10T09:39:43;89.03;;;38.57;;
23258;SDS011;11798;51.528;7.240;2022-12-10T09:45:18;92.77;;;39.67;;
23258;SDS011;11798;51.528;7.240;2022-12-10T09:50:48;83.17;;;37.17;;
23258;SDS011;11798;51.528;7.240;2022-12-10T09:53:24;84.13;;;37.10;;
23258;SDS011;11798;51.528;7.240;2022-12-10T09:55:53;73.10;;;35.13;;
23258;SDS011;11798;51.528;7.240;2022-12-10T09:58:22;74.93;;;35.90;;
23258;SDS011;11798;51.528;7.240;2022-12-10T10:01:00;82.80;;;37.87;;
23258;SDS011;11798;51.528;7.240;2022-12-10T10:03:29;79.60;;;36.00;;
23258;SDS011;11798;51.528;7.240;2022-12-10T10:05:59;77.33;;;36.53;;
23258;SDS011;11798;51.528;7.240;2022-12-10T10:08:31;71.37;;;33.30;;
23258;SDS011;11798;51.528;7.240;2022-12-10T10:11:02;77.70;;;35.17;;
23258;SDS011;11798;51.528;7.240;2022-12-10T10:13:34;72.57;;;34.13;;
23258;SDS011;11798;51.528;7.240;2022-12-10T10:16:24;80.97;;;36.40;;
23258;SDS011;11798;51.528;7.240;2022-12-10T10:19:03;81.20;;;36.33;;
23258;SDS011;11798;51.528;7.240;2022-12-10T10:21:49;83.23;;;38.20;;
23258;SDS011;11798;51.528;7.240;2022-12-10T10:24:17;79.43;;;36.00;;
23258;SDS011;11798;51.528;7.240;2022-12-10T10:26:46;76.23;;;34.13;;
23258;SDS011;11798;51.528;7.240;2022-12-10T10:29:13;77.73;;;35.93;;
23258;SDS011;11798;51.528;7.240;2022-12-10T10:31:42;83.43;;;36.77;;
23258;SDS011;11798;51.528;7.240;2022-12-10T10:34:14;77.70;;;35.87;;
23258;SDS011;11798;51.528;7.240;2022-12-10T10:36:42;90.53;;;39.53;;
23258;SDS011;11798;51.528;7.240;2022-12-10T10:39:21;85.70;;;38.03;;
23258;SDS011;11798;51.528;7.240;2022-12-10T10:41:52;83.17;;;38.07;;
23258;SDS011;11798;51.528;7.240;2022-12-10T10:44:20;82.63;;;39.47;;
23258;SDS011;11798;51.528;7.240;2022-12-10T10:46:49;83.13;;;39.90;;
23258;SDS011;11798;51.528;7.240;2022-12-10T10:52:11;90.10;;;40.67;;
23258;SDS011;11798;51.528;7.240;2022-12-10T10:54:41;88.57;;;40.30;;
23258;SDS011;11798;51.528;7.240;2022-12-10T10:57:50;85.73;;;39.27;;
23258;SDS011;11798;51.528;7.240;2022-12-10T11:00:06;89.47;;;40.03;;
23258;SDS011;11798;51.528;7.240;2022-12-10T11:02:42;94.83;;;42.83;;
23258;SDS011;11798;51.528;7.240;2022-12-10T11:05:17;85.17;;;40.00;;
23258;SDS011;11798;51.528;7.240;2022-12-10T11:07:49;88.17;;;41.90;;
23258;SDS011;11798;51.528;7.240;2022-12-10T11:10:26;92.20;;;41.20;;
23258;SDS011;11798;51.528;7.240;2022-12-10T11:12:56;101.60;;;44.23;;
23258;SDS011;11798;51.528;7.240;2022-12-10T11:15:36;93.10;;;43.53;;
23258;SDS011;11798;51.528;7.240;2022-12-10T11:21:03;93.13;;;42.30;;
23258;SDS011;11798;51.528;7.240;2022-12-10T11:23:32;88.83;;;41.43;;
23258;SDS011;11798;51.528;7.240;2022-12-10T11:34:06;92.97;;;43.20;;
23258;SDS011;11798;51.528;7.240;2022-12-10T11:44:29;97.73;;;45.23;;
23258;SDS011;11798;51.528;7.240;2022-12-10T11:47:46;92.07;;;41.30;;
23258;SDS011;11798;51.528;7.240;2022-12-10T11:50:11;102.60;;;43.57;;
23258;SDS011;11798;51.528;7.240;2022-12-10T11:58:17;103.93;;;44.07;;
23258;SDS011;11798;51.528;7.240;2022-12-10T12:12:27;89.23;;;42.17;;
23258;SDS011;11798;51.528;7.240;2022-12-10T12:14:29;90.43;;;40.40;;
23258;SDS011;11798;51.528;7.240;2022-12-10T12:17:19;82.00;;;39.03;;
23258;SDS011;11798;51.528;7.240;2022-12-10T12:19:53;83.03;;;38.00;;
23258;SDS011;11798;51.528;7.240;2022-12-10T12:22:26;98.17;;;42.03;;
23258;SDS011;11798;51.528;7.240;2022-12-10T12:24:58;94.50;;;41.77;;
23258;SDS011;11798;51.528;7.240;2022-12-10T12:30:05;100.90;;;44.50;;
23258;SDS011;11798;51.528;7.240;2022-12-10T12:38:35;90.03;;;41.80;;
23258;SDS011;11798;51.528;7.240;2022-12-10T12:45:59;96.60;;;43.47;;
23258;SDS011;11798;51.528;7.240;2022-12-10T12:51:03;89.97;;;41.30;;
23258;SDS011;11798;51.528;7.240;2022-12-10T12:53:54;96.63;;;42.73;;
23258;SDS011;11798;51.528;7.240;2022-12-10T13:01:43;93.10;;;41.23;;
23258;SDS011;11798;51.528;7.240;2022-12-10T13:04:16;87.97;;;40.90;;
23258;SDS011;11798;51.528;7.240;2022-12-10T13:06:42;92.53;;;42.20;;
23258;SDS011;11798;51.528;7.240;2022-12-10T13:09:47;91.10;;;42.17;;
23258;SDS011;11798;51.528;7.240;2022-12-10T13:15:20;93.67;;;43.53;;
23258;SDS011;11798;51.528;7.240;2022-12-10T13:28:16;85.60;;;39.47;;
23258;SDS011;11798;51.528;7.240;2022-12-10T13:31:15;84.67;;;39.27;;
23258;SDS011;11798;51.528;7.240;2022-12-10T13:33:54;81.07;;;38.10;;
23258;SDS011;11798;51.528;7.240;2022-12-10T13:39:31;83.13;;;38.10;;
23258;SDS011;11798;51.528;7.240;2022-12-10T13:45:33;99.20;;;47.57;;
23258;SDS011;11798;51.528;7.240;2022-12-10T13:47:48;90.80;;;44.43;;
23258;SDS011;11798;51.528;7.240;2022-12-10T13:53:01;82.37;;;38.77;;
23258;SDS011;11798;51.528;7.240;2022-12-10T14:06:48;85.97;;;39.70;;
23258;SDS011;11798;51.528;7.240;2022-12-10T14:09:32;89.07;;;40.17;;
23258;SDS011;11798;51.528;7.240;2022-12-10T14:12:31;84.73;;;39.37;;
23258;SDS011;11798;51.528;7.240;2022-12-10T14:15:03;83.57;;;38.80;;
23258;SDS011;11798;51.528;7.240;2022-12-10T14:17:35;77.47;;;37.07;;
23258;SDS011;11798;51.528;7.240;2022-12-10T14:20:06;85.67;;;39.53;;
23258;SDS011;11798;51.528;7.240;2022-12-10T14:22:34;78.73;;;39.97;;
23258;SDS011;11798;51.528;7.240;2022-12-10T14:25:03;83.10;;;39.73;;
23258;SDS011;11798;51.528;7.240;2022-12-10T14:27:32;86.87;;;40.70;;
23258;SDS011;11798;51.528;7.240;2022-12-10T14:30:05;89.40;;;42.50;;
23258;SDS011;11798;51.528;7.240;2022-12-10T14:32:40;82.43;;;39.70;;
23258;SDS011;11798;51.528;7.240;2022-12-10T14:35:16;92.70;;;47.00;;
23258;SDS011;11798;51.528;7.240;2022-12-10T14:37:48;89.27;;;41.77;;
23258;SDS011;11798;51.528;7.240;2022-12-10T14:40:19;84.67;;;40.83;;
23258;SDS011;11798;51.528;7.240;2022-12-10T14:42:49;79.63;;;38.87;;
23258;SDS011;11798;51.528;7.240;2022-12-10T14:45:18;85.03;;;39.50;;
23258;SDS011;11798;51.528;7.240;2022-12-10T14:47:44;80.67;;;37.50;;
23258;SDS011;11798;51.528;7.240;2022-12-10T14:50:12;73.67;;;38.33;;
23258;SDS011;11798;51.528;7.240;2022-12-10T14:52:40;79.93;;;36.63;;
23258;SDS011;11798;51.528;7.240;2022-12-10T14:55:15;79.77;;;38.43;;
23258;SDS011;11798;51.528;7.240;2022-12-10T14:57:54;81.17;;;38.00;;
23258;SDS011;11798;51.528;7.240;2022-12-10T15:00:26;85.07;;;37.73;;
23258;SDS011;11798;51.528;7.240;2022-12-10T15:02:56;91.00;;;44.07;;
23258;SDS011;11798;51.528;7.240;2022-12-10T15:05:27;90.23;;;44.07;;
23258;SDS011;11798;51.528;7.240;2022-12-10T15:07:56;83.43;;;38.17;;
23258;SDS011;11798;51.528;7.240;2022-12-10T15:10:32;83.90;;;39.50;;
23258;SDS011;11798;51.528;7.240;2022-12-10T15:15:37;80.00;;;37.53;;
23258;SDS011;11798;51.528;7.240;2022-12-10T15:20:37;97.73;;;47.17;;
23258;SDS011;11798;51.528;7.240;2022-12-10T15:23:29;93.40;;;43.47;;
23258;SDS011;11798;51.528;7.240;2022-12-10T15:30:57;97.80;;;45.70;;
23258;SDS011;11798;51.528;7.240;2022-12-10T15:33:41;80.53;;;38.47;;
23258;SDS011;11798;51.528;7.240;2022-12-10T15:36:16;76.87;;;37.17;;
23258;SDS011;11798;51.528;7.240;2022-12-10T15:39:48;77.60;;;38.07;;
23258;SDS011;11798;51.528;7.240;2022-12-10T15:42:05;80.17;;;36.47;;
23258;SDS011;11798;51.528;7.240;2022-12-10T15:44:41;76.67;;;34.97;;
23258;SDS011;11798;51.528;7.240;2022-12-10T15:49:53;75.73;;;35.80;;
23258;SDS011;11798;51.528;7.240;2022-12-10T15:54:49;81.10;;;41.93;;
23258;SDS011;11798;51.528;7.240;2022-12-10T15:57:17;80.47;;;36.10;;
23258;SDS011;11798;51.528;7.240;2022-12-10T15:59:44;57.90;;;27.73;;
23258;SDS011;11798;51.528;7.240;2022-12-10T16:02:35;62.60;;;28.17;;
23258;SDS011;11798;51.528;7.240;2022-12-10T16:05:10;60.63;;;28.93;;
23258;SDS011;11798;51.528;7.240;2022-12-10T16:07:40;58.50;;;26.90;;
23258;SDS011;11798;51.528;7.240;2022-12-10T16:10:06;69.90;;;33.20;;
23258;SDS011;11798;51.528;7.240;2022-12-10T16:12:34;61.13;;;29.90;;
23258;SDS011;11798;51.528;7.240;2022-12-10T16:15:01;65.13;;;28.77;;
23258;SDS011;11798;51.528;7.240;2022-12-10T16:17:29;61.33;;;29.57;;
23258;SDS011;11798;51.528;7.240;2022-12-10T16:23:00;64.80;;;29.83;;
23258;SDS011;11798;51.528;7.240;2022-12-10T16:25:27;60.33;;;27.50;;
23258;SDS011;11798;51.528;7.240;2022-12-10T16:27:54;66.87;;;28.63;;
23258;SDS011;11798;51.528;7.240;2022-12-10T16:30:24;72.07;;;32.03;;
23258;SDS011;11798;51.528;7.240;2022-12-10T16:32:54;61.70;;;27.77;;
23258;SDS011;11798;51.528;7.240;2022-12-10T16:35:20;66.03;;;30.27;;
23258;SDS011;11798;51.528;7.240;2022-12-10T16:37:46;70.73;;;30.07;;
23258;SDS011;11798;51.528;7.240;2022-12-10T16:40:20;62.03;;;28.63;;
23258;SDS011;11798;51.528;7.240;2022-12-10T16:42:47;67.60;;;29.43;;
23258;SDS011;11798;51.528;7.240;2022-12-10T16:45:16;60.97;;;28.20;;
23258;SDS011;11798;51.528;7.240;2022-12-10T16:47:51;67.10;;;30.10;;
23258;SDS011;11798;51.528;7.240;2022-12-10T16:50:17;64.97;;;30.67;;
23258;SDS011;11798;51.528;7.240;2022-12-10T16:52:43;68.23;;;32.20;;
23258;SDS011;11798;51.528;7.240;2022-12-10T16:55:13;76.80;;;34.00;;
23258;SDS011;11798;51.528;7.240;2022-12-10T16:57:41;71.53;;;32.50;;